Time;durP1;ratioP1;P1;durP2;ratioP2;P2;SDS_P1;SDS_P2;PMS_P1;PMS_P2;Temp;Humidity;BMP_temperature;BMP_pressure;BME280_temperature;BME280_humidity;BME280_pressure;Samples;Min_cycle;Max_cycle;Signal;HPM_P1;HPM_P2
2024/02/13 00:02:20;;;;;;;;;;;;;;;8.98;100.00;99507.17;108344;1254;71480;-71
2024/02/13 00:04:48;;;;;;;;;;;;;;;8.99;100.00;99519.85;108422;1253;72498;-71
2024/02/13 00:07:15;;;;;;;;;;;;;;;8.94;100.00;99526.80;108325;1253;61313;-71
2024/02/13 00:09:43;;;;;;;;;;;;;;;8.92;100.00;99523.34;108404;1251;61310;-71
2024/02/13 00:12:11;;;;;;;;;;;;;;;8.92;100.00;99515.45;108333;1251;74439;-71
2024/02/13 00:14:38;;;;;;;;;;;;;;;8.92;100.00;99511.09;108336;1251;71202;-70
2024/02/13 00:17:05;;;;;;;;;;;;;;;8.92;100.00;99509.12;108277;1251;71520;-70
2024/02/13 00:19:32;;;;;;;;;;;;;;;8.90;100.00;99515.67;108402;1251;62344;-70
2024/02/13 00:21:59;;;;;;;;;;;;;;;8.86;100.00;99509.45;108325;1255;61125;-71
2024/02/13 00:24:27;;;;;;;;;;;;;;;8.78;100.00;99506.13;108424;1251;72563;-70
2024/02/13 00:26:53;;;;;;;;;;;;;;;8.73;100.00;99491.75;108325;1251;73067;-70
2024/02/13 00:29:20;;;;;;;;;;;;;;;8.68;100.00;99496.98;108363;1255;73568;-71
2024/02/13 00:31:47;;;;;;;;;;;;;;;8.62;100.00;99510.84;108320;1251;61861;-70
2024/02/13 00:34:19;;;;;;;;;;;;;;;8.57;100.00;99511.27;108367;1251;61144;-70
2024/02/13 00:36:48;;;;;;;;;;;;;;;8.54;100.00;99505.95;108236;1251;74315;-71
2024/02/13 00:39:15;;;;;;;;;;;;;;;8.52;100.00;99508.19;108243;1251;72818;-70
2024/02/13 00:41:42;;;;;;;;;;;;;;;8.52;100.00;99512.02;108409;1251;71645;-70
2024/02/13 00:44:09;;;;;;;;;;;;;;;8.51;100.00;99519.42;108343;1251;62419;-71
2024/02/13 00:46:36;;;;;;;;;;;;;;;8.49;100.00;99520.28;108625;1251;59989;-70
2024/02/13 00:49:03;;;;;;;;;;;;;;;8.48;100.00;99516.14;108373;1251;75523;-70
2024/02/13 00:51:31;;;;;;;;;;;;;;;8.45;100.00;99505.06;108370;1251;72316;-71
2024/02/13 00:53:58;;;;;;;;;;;;;;;8.38;100.00;99500.42;108256;1251;73878;-71
2024/02/13 00:56:24;;;;;;;;;;;;;;;8.31;100.00;99505.16;108329;1251;61937;-72
2024/02/13 00:58:51;;;;;;;;;;;;;;;8.26;100.00;99510.64;108338;1251;61202;-71
2024/02/13 01:01:18;;;;;;;;;;;;;;;8.21;100.00;99511.17;108428;1255;73168;-71
2024/02/13 01:03:45;;;;;;;;;;;;;;;8.19;100.00;99503.98;108342;1252;70730;-72
2024/02/13 01:06:14;;;;;;;;;;;;;;;8.15;100.00;99511.55;108366;1251;71221;-73
2024/02/13 01:08:42;;;;;;;;;;;;;;;8.13;100.00;99517.46;108363;1251;62018;-71
2024/02/13 01:11:09;;;;;;;;;;;;;;;8.11;100.00;99513.66;108386;1251;61122;-71
2024/02/13 01:13:37;;;;;;;;;;;;;;;8.10;100.00;99517.56;108499;1251;74457;-71
2024/02/13 01:16:04;;;;;;;;;;;;;;;8.08;100.00;99521.80;108397;1251;71384;-71
2024/02/13 01:18:31;;;;;;;;;;;;;;;8.05;100.00;99518.56;108261;1251;73641;-71
2024/02/13 01:20:58;;;;;;;;;;;;;;;8.00;100.00;99522.39;108481;1251;61104;-72
2024/02/13 01:23:25;;;;;;;;;;;;;;;7.92;100.00;99517.55;108346;1251;59848;-72
2024/02/13 01:25:52;;;;;;;;;;;;;;;7.82;100.00;99516.63;108252;1255;73370;-71
2024/02/13 01:28:19;;;;;;;;;;;;;;;7.75;100.00;99518.80;108392;1251;72695;-70
2024/02/13 01:30:46;;;;;;;;;;;;;;;7.71;100.00;99520.71;108399;1252;72304;-71
2024/02/13 01:33:13;;;;;;;;;;;;;;;7.67;100.00;99513.25;108324;1251;61974;-71
2024/02/13 01:35:42;;;;;;;;;;;;;;;7.62;100.00;99513.67;108342;1251;61071;-71
2024/02/13 01:38:09;;;;;;;;;;;;;;;7.58;100.00;99511.73;108415;1251;75079;-71
2024/02/13 01:40:38;;;;;;;;;;;;;;;7.52;100.00;99516.05;108430;1251;72687;-72
2024/02/13 01:43:04;;;;;;;;;;;;;;;7.44;100.00;99513.20;108416;1251;72645;-71
2024/02/13 01:45:32;;;;;;;;;;;;;;;7.39;100.00;99507.52;108341;1251;61184;-71
2024/02/13 01:48:01;;;;;;;;;;;;;;;7.36;100.00;99507.81;108427;1251;61212;-70
2024/02/13 01:50:28;;;;;;;;;;;;;;;7.33;100.00;99510.09;108375;1251;73490;-71
2024/02/13 01:52:55;;;;;;;;;;;;;;;7.29;100.00;99516.88;108302;1251;71168;-70
2024/02/13 01:55:23;;;;;;;;;;;;;;;7.23;100.00;99507.88;108394;1251;72702;-71
2024/02/13 01:57:53;;;;;;;;;;;;;;;7.17;100.00;99512.15;108348;1251;61900;-70
2024/02/13 02:00:20;;;;;;;;;;;;;;;7.11;100.00;99515.68;108335;1251;60128;-71
2024/02/13 02:02:47;;;;;;;;;;;;;;;7.03;100.00;99515.55;108345;1251;73648;-71
2024/02/13 02:05:14;;;;;;;;;;;;;;;6.97;100.00;99516.21;108277;1251;72705;-71
2024/02/13 02:07:42;;;;;;;;;;;;;;;6.93;100.00;99519.80;108341;1251;71488;-70
2024/02/13 02:10:09;;;;;;;;;;;;;;;6.91;100.00;99522.02;108353;1251;60971;-71
2024/02/13 02:12:35;;;;;;;;;;;;;;;6.86;100.00;99522.27;108337;1251;61347;-72
2024/02/13 02:15:04;;;;;;;;;;;;;;;6.81;100.00;99517.30;108326;1251;74443;-72
2024/02/13 02:17:31;;;;;;;;;;;;;;;6.75;100.00;99523.37;108415;1251;71335;-72
2024/02/13 02:19:58;;;;;;;;;;;;;;;6.68;100.00;99530.33;108348;1251;72686;-72
2024/02/13 02:22:25;;;;;;;;;;;;;;;6.61;100.00;99531.94;108333;1251;61283;-71
2024/02/13 02:24:52;;;;;;;;;;;;;;;6.57;100.00;99537.00;108303;1251;63684;-71
2024/02/13 02:27:19;;;;;;;;;;;;;;;6.54;100.00;99541.44;108343;1251;74752;-72
2024/02/13 02:29:46;;;;;;;;;;;;;;;6.51;100.00;99536.48;108375;1251;71992;-72
2024/02/13 02:32:12;;;;;;;;;;;;;;;6.48;100.00;99538.75;108306;1251;72131;-71
2024/02/13 02:34:39;;;;;;;;;;;;;;;6.45;100.00;99537.54;108242;1256;61112;-71
2024/02/13 02:37:06;;;;;;;;;;;;;;;6.41;100.00;99532.48;108375;1251;60247;-71
2024/02/13 02:39:33;;;;;;;;;;;;;;;6.38;100.00;99531.88;108355;1251;74675;-71
2024/02/13 02:42:01;;;;;;;;;;;;;;;6.34;100.00;99533.65;108314;1251;72887;-72
2024/02/13 02:44:27;;;;;;;;;;;;;;;6.27;100.00;99530.73;108347;1251;74443;-71
2024/02/13 02:46:54;;;;;;;;;;;;;;;6.20;100.00;99530.42;108373;1252;62025;-71
2024/02/13 02:49:20;;;;;;;;;;;;;;;6.17;100.00;99529.16;108292;1254;61179;-72
2024/02/13 02:51:47;;;;;;;;;;;;;;;6.14;100.00;99531.27;108377;1251;76490;-71
2024/02/13 02:54:14;;;;;;;;;;;;;;;6.10;100.00;99531.23;108333;1251;61226;-71
2024/02/13 02:56:43;;;;;;;;;;;;;;;6.05;100.00;99532.15;108390;1251;72102;-70
2024/02/13 02:59:10;;;;;;;;;;;;;;;6.01;100.00;99529.23;108347;1254;65636;-70
2024/02/13 03:01:36;;;;;;;;;;;;;;;5.93;100.00;99537.97;108377;1251;59987;-71
2024/02/13 03:04:06;;;;;;;;;;;;;;;5.84;100.00;99545.39;108334;1252;73398;-71
2024/02/13 03:06:40;;;;;;;;;;;;;;;5.78;100.00;99551.84;108408;1251;72799;-70
2024/02/13 03:09:08;;;;;;;;;;;;;;;5.73;100.00;99547.71;108384;1251;74740;-71
2024/02/13 03:11:34;;;;;;;;;;;;;;;5.70;100.00;99545.51;108439;1251;61930;-71
2024/02/13 03:14:01;;;;;;;;;;;;;;;5.65;100.00;99550.38;108397;1252;59973;-72
2024/02/13 03:16:30;;;;;;;;;;;;;;;5.62;100.00;99550.89;108369;1251;74690;-71
2024/02/13 03:18:57;;;;;;;;;;;;;;;5.61;100.00;99557.02;108399;1251;72740;-71
2024/02/13 03:21:24;;;;;;;;;;;;;;;5.62;100.00;99553.90;108355;1251;71796;-71
2024/02/13 03:23:50;;;;;;;;;;;;;;;5.60;100.00;99554.99;108371;1251;62196;-71
2024/02/13 03:26:17;;;;;;;;;;;;;;;5.56;100.00;99549.55;108422;1251;61199;-71
2024/02/13 03:28:44;;;;;;;;;;;;;;;5.50;100.00;99558.00;108365;1251;74884;-71
2024/02/13 03:31:11;;;;;;;;;;;;;;;5.46;100.00;99557.37;108321;1251;59709;-71
2024/02/13 03:33:37;;;;;;;;;;;;;;;5.45;100.00;99557.79;108347;1251;61194;-71
2024/02/13 03:36:05;;;;;;;;;;;;;;;5.46;100.00;99558.11;108554;1255;62838;-71
2024/02/13 03:38:31;;;;;;;;;;;;;;;5.46;100.00;99560.34;108403;1251;61237;-71
2024/02/13 03:40:59;;;;;;;;;;;;;;;5.46;100.00;99566.98;108311;1251;73337;-72
2024/02/13 03:43:26;;;;;;;;;;;;;;;5.47;100.00;99574.51;108307;1251;71530;-71
2024/02/13 03:45:53;;;;;;;;;;;;;;;5.47;100.00;99569.26;108476;1251;60374;-71
2024/02/13 03:48:20;;;;;;;;;;;;;;;5.46;100.00;99574.64;108389;1251;62046;-71
2024/02/13 03:50:47;;;;;;;;;;;;;;;5.47;100.00;99571.74;108366;1251;60850;-70
2024/02/13 03:53:14;;;;;;;;;;;;;;;5.46;100.00;99567.86;108393;1251;61352;-71
2024/02/13 03:55:40;;;;;;;;;;;;;;;5.47;100.00;99566.40;108355;1251;74512;-71
2024/02/13 03:58:07;;;;;;;;;;;;;;;5.47;100.00;99567.98;108514;1251;72834;-70
2024/02/13 04:00:34;;;;;;;;;;;;;;;5.45;100.00;99571.61;108330;1251;62463;-71
2024/02/13 04:03:01;;;;;;;;;;;;;;;5.45;100.00;99568.70;108383;1252;61228;-71
2024/02/13 04:05:28;;;;;;;;;;;;;;;5.45;100.00;99575.33;108454;1251;74813;-72
2024/02/13 04:07:55;;;;;;;;;;;;;;;5.45;100.00;99577.91;108373;1251;71966;-71
2024/02/13 04:10:23;;;;;;;;;;;;;;;5.44;100.00;99580.04;108383;1251;72739;-72
2024/02/13 04:12:50;;;;;;;;;;;;;;;5.43;100.00;99584.48;108407;1251;61269;-71
2024/02/13 04:15:17;;;;;;;;;;;;;;;5.42;100.00;99585.14;108426;1251;61102;-71
2024/02/13 04:17:44;;;;;;;;;;;;;;;5.43;100.00;99586.10;108416;1251;73821;-71
2024/02/13 04:20:11;;;;;;;;;;;;;;;5.43;100.00;99585.05;108361;1251;72267;-73
2024/02/13 04:22:38;;;;;;;;;;;;;;;5.44;100.00;99587.98;108358;1251;71834;-71
2024/02/13 04:25:06;;;;;;;;;;;;;;;5.47;100.00;99590.45;108355;1251;63083;-71
2024/02/13 04:27:32;;;;;;;;;;;;;;;5.47;100.00;99594.53;108416;1251;61232;-71
2024/02/13 04:29:59;;;;;;;;;;;;;;;5.50;100.00;99601.96;108371;1251;61135;-71
2024/02/13 04:32:26;;;;;;;;;;;;;;;5.51;100.00;99605.11;108424;1251;72839;-71
2024/02/13 04:34:54;;;;;;;;;;;;;;;5.53;100.00;99606.24;108275;1251;72578;-71
2024/02/13 04:37:22;;;;;;;;;;;;;;;5.54;100.00;99604.15;108379;1251;61702;-71
2024/02/13 04:39:49;;;;;;;;;;;;;;;5.54;100.00;99606.27;108388;1252;61112;-71
2024/02/13 04:42:15;;;;;;;;;;;;;;;5.52;100.00;99605.23;108386;1251;73600;-71
2024/02/13 04:44:43;;;;;;;;;;;;;;;5.52;100.00;99610.16;108416;1251;72081;-72
2024/02/13 04:47:09;;;;;;;;;;;;;;;5.52;100.00;99609.40;108395;1251;72639;-71
2024/02/13 04:49:36;;;;;;;;;;;;;;;5.51;100.00;99612.80;108391;1251;60666;-71
2024/02/13 04:52:04;;;;;;;;;;;;;;;5.50;100.00;99616.55;108344;1251;61141;-71
2024/02/13 04:54:30;;;;;;;;;;;;;;;5.51;100.00;99619.09;108408;1255;74687;-71
2024/02/13 04:56:59;;;;;;;;;;;;;;;5.48;100.00;99619.70;108338;1251;72870;-71
2024/02/13 04:59:27;;;;;;;;;;;;;;;5.44;100.00;99626.42;108423;1251;70450;-72
2024/02/13 05:01:53;;;;;;;;;;;;;;;5.38;100.00;99630.23;108347;1251;61889;-72
2024/02/13 05:09:33;;;;;;;;;;;;;;;5.26;100.00;99650.17;108387;1251;72613;-72
2024/02/13 05:11:59;;;;;;;;;;;;;;;5.23;100.00;99651.52;108388;1251;72634;-72
2024/02/13 05:14:27;;;;;;;;;;;;;;;5.20;100.00;99654.23;108375;1251;61122;-72
2024/02/13 05:16:54;;;;;;;;;;;;;;;5.17;100.00;99653.23;108409;1251;59951;-73
2024/02/13 05:19:21;;;;;;;;;;;;;;;5.15;100.00;99657.13;108439;1251;74611;-73
2024/02/13 05:21:50;;;;;;;;;;;;;;;5.13;100.00;99657.36;108354;1251;72778;-71
2024/02/13 05:24:19;;;;;;;;;;;;;;;5.11;100.00;99661.13;108346;1252;72630;-71
2024/02/13 05:26:45;;;;;;;;;;;;;;;5.09;100.00;99666.88;108357;1251;62120;-71
2024/02/13 05:29:13;;;;;;;;;;;;;;;5.08;100.00;99666.77;108375;1251;61221;-72
2024/02/13 05:31:41;;;;;;;;;;;;;;;5.08;100.00;99674.61;108401;1251;74723;-72
2024/02/13 05:34:08;;;;;;;;;;;;;;;5.10;100.00;99680.34;108438;1251;72805;-71
2024/02/13 05:36:35;;;;;;;;;;;;;;;5.13;100.00;99681.56;108413;1251;72749;-71
2024/02/13 05:39:03;;;;;;;;;;;;;;;5.17;100.00;99682.19;108382;1251;62380;-71
2024/02/13 05:41:30;;;;;;;;;;;;;;;5.19;100.00;99684.93;108440;1251;60016;-71
2024/02/13 05:43:56;;;;;;;;;;;;;;;5.23;100.00;99687.84;108385;1251;61109;-71
2024/02/13 05:46:24;;;;;;;;;;;;;;;5.28;100.00;99690.14;108373;1255;61201;-71
2024/02/13 05:48:54;;;;;;;;;;;;;;;5.32;100.00;99693.36;108346;1251;71509;-72
2024/02/13 05:51:20;;;;;;;;;;;;;;;5.34;100.00;99699.45;108479;1251;60742;-71
2024/02/13 05:53:47;;;;;;;;;;;;;;;5.37;100.00;99695.45;108371;1256;60568;-71
2024/02/13 05:56:14;;;;;;;;;;;;;;;5.40;100.00;99694.70;108441;1251;76331;-71
2024/02/13 05:58:55;;;;;;;;;;;;;;;5.44;100.00;99703.70;108452;1251;74973;-72
2024/02/13 06:01:22;;;;;;;;;;;;;;;5.47;100.00;99706.97;108352;1255;71453;-71
2024/02/13 06:03:54;;;;;;;;;;;;;;;5.52;100.00;99711.45;108499;1251;62226;-72
2024/02/13 06:06:22;;;;;;;;;;;;;;;5.57;100.00;99709.60;108332;1252;61149;-72
2024/02/13 06:08:49;;;;;;;;;;;;;;;5.62;100.00;99706.70;108439;1251;74877;-71
2024/02/13 06:11:18;;;;;;;;;;;;;;;5.67;100.00;99702.47;108351;1255;72682;-70
2024/02/13 06:13:45;;;;;;;;;;;;;;;5.74;100.00;99708.61;108376;1251;61160;-71
2024/02/13 06:16:17;;;;;;;;;;;;;;;5.83;100.00;99708.08;108366;1251;62072;-72
2024/02/13 06:18:47;;;;;;;;;;;;;;;5.92;100.00;99711.27;108483;1251;61091;-71
2024/02/13 06:21:14;;;;;;;;;;;;;;;6.01;100.00;99709.45;108421;1251;73677;-72
2024/02/13 06:23:42;;;;;;;;;;;;;;;6.10;100.00;99706.16;108567;1251;71335;-72
2024/02/13 06:26:08;;;;;;;;;;;;;;;6.19;100.00;99712.57;108356;1257;71659;-72
2024/02/13 06:28:35;;;;;;;;;;;;;;;6.25;100.00;99711.20;108349;1253;61228;-71
2024/02/13 06:31:03;;;;;;;;;;;;;;;6.34;100.00;99711.71;108513;1256;61230;-72
2024/02/13 06:33:31;;;;;;;;;;;;;;;6.46;100.00;99707.59;108494;1251;74757;-72
2024/02/13 06:35:58;;;;;;;;;;;;;;;6.57;100.00;99711.31;108358;1256;73268;-72
2024/02/13 06:38:26;;;;;;;;;;;;;;;6.67;100.00;99714.06;108445;1251;72803;-71
2024/02/13 06:40:53;;;;;;;;;;;;;;;6.78;100.00;99711.24;108486;1253;61131;-72
2024/02/13 06:43:20;;;;;;;;;;;;;;;6.91;100.00;99717.56;108393;1251;59698;-72
2024/02/13 06:45:48;;;;;;;;;;;;;;;7.00;100.00;99717.64;108446;1251;77944;-73
2024/02/13 06:48:15;;;;;;;;;;;;;;;7.09;100.00;99717.17;108424;1251;75612;-72
2024/02/13 06:50:43;;;;;;;;;;;;;;;7.18;100.00;99717.18;108434;1251;71388;-72
2024/02/13 06:53:10;;;;;;;;;;;;;;;7.22;100.00;99713.32;108382;1254;61091;-71
2024/02/13 06:55:36;;;;;;;;;;;;;;;7.31;100.00;99711.27;108326;1255;62985;-71
2024/02/13 06:58:03;;;;;;;;;;;;;;;7.41;100.00;99712.60;108424;1252;72338;-71
2024/02/13 07:00:31;;;;;;;;;;;;;;;7.50;100.00;99710.38;108428;1255;73357;-71
2024/02/13 07:02:59;;;;;;;;;;;;;;;7.60;100.00;99714.42;108390;1251;76237;-71
2024/02/13 07:05:27;;;;;;;;;;;;;;;7.68;100.00;99719.83;108448;1254;62014;-72
2024/02/13 07:07:53;;;;;;;;;;;;;;;7.74;100.00;99725.92;108350;1256;61147;-70
2024/02/13 07:10:20;;;;;;;;;;;;;;;7.83;100.00;99729.84;108328;1257;74645;-71
2024/02/13 07:12:47;;;;;;;;;;;;;;;7.91;100.00;99729.30;108337;1256;72661;-71
2024/02/13 07:15:14;;;;;;;;;;;;;;;8.01;100.00;99726.63;108385;1256;72685;-71
2024/02/13 07:17:40;;;;;;;;;;;;;;;8.10;100.00;99719.48;108388;1254;62029;-71
2024/02/13 07:20:26;;;;;;;;;;;;;;;8.19;100.00;99725.19;108358;1251;61084;-71
2024/02/13 07:22:52;;;;;;;;;;;;;;;8.26;100.00;99728.79;108458;1251;73551;-71
2024/02/13 07:25:21;;;;;;;;;;;;;;;8.32;100.00;99732.27;108427;1251;71539;-71
2024/02/13 07:27:48;;;;;;;;;;;;;;;8.39;100.00;99735.60;108454;1251;71507;-72
2024/02/13 07:30:15;;;;;;;;;;;;;;;8.48;100.00;99737.40;108494;1256;63674;-73
2024/02/13 07:32:44;;;;;;;;;;;;;;;8.55;100.00;99740.70;108364;1251;59013;-72
2024/02/13 07:35:11;;;;;;;;;;;;;;;8.61;100.00;99735.45;108299;1251;74797;-71
2024/02/13 07:37:39;;;;;;;;;;;;;;;8.64;100.00;99731.35;108463;1251;73952;-71
2024/02/13 07:40:06;;;;;;;;;;;;;;;8.70;100.00;99739.50;108372;1251;70527;-71
2024/02/13 07:42:33;;;;;;;;;;;;;;;8.75;100.00;99748.66;108342;1251;61291;-72
2024/02/13 07:44:59;;;;;;;;;;;;;;;8.76;100.00;99753.30;108366;1251;60964;-72
2024/02/13 07:47:27;;;;;;;;;;;;;;;8.76;100.00;99759.79;108438;1251;74656;-72
2024/02/13 07:49:54;;;;;;;;;;;;;;;8.75;100.00;99757.88;108393;1256;72811;-70
2024/02/13 07:52:21;;;;;;;;;;;;;;;8.72;100.00;99761.71;108374;1256;72637;-71
2024/02/13 07:54:48;;;;;;;;;;;;;;;8.75;100.00;99761.08;108354;1251;62013;-71
2024/02/13 07:57:16;;;;;;;;;;;;;;;8.78;100.00;99761.41;108425;1257;61123;-70
2024/02/13 07:59:44;;;;;;;;;;;;;;;8.81;100.00;99759.23;108330;1257;72779;-71
2024/02/13 08:02:10;;;;;;;;;;;;;;;8.85;100.00;99749.22;108570;1251;72701;-72
2024/02/13 08:04:37;;;;;;;;;;;;;;;8.90;100.00;99749.80;108304;1257;72717;-74
2024/02/13 08:07:04;;;;;;;;;;;;;;;8.95;100.00;99748.91;108382;1251;63150;-70
2024/02/13 08:09:32;;;;;;;;;;;;;;;8.98;100.00;99748.85;108322;1251;59911;-70
2024/02/13 08:12:02;;;;;;;;;;;;;;;9.02;100.00;99752.05;108410;1254;74214;-71
2024/02/13 08:14:30;;;;;;;;;;;;;;;9.04;100.00;99754.33;108425;1254;72743;-69
2024/02/13 08:16:58;;;;;;;;;;;;;;;9.09;100.00;99755.95;108384;1251;71345;-70
2024/02/13 08:19:26;;;;;;;;;;;;;;;9.13;100.00;99751.73;108441;1251;65167;-70
2024/02/13 08:21:52;;;;;;;;;;;;;;;9.19;100.00;99750.13;108263;1251;61224;-72
2024/02/13 08:24:19;;;;;;;;;;;;;;;9.27;100.00;99748.79;108351;1251;78648;-71
2024/02/13 08:26:48;;;;;;;;;;;;;;;9.34;100.00;99753.04;108362;1251;72929;-72
2024/02/13 08:29:14;;;;;;;;;;;;;;;9.42;100.00;99755.02;108320;1251;71850;-70
2024/02/13 08:31:41;;;;;;;;;;;;;;;9.50;100.00;99753.61;108535;1251;62494;-72
2024/02/13 08:34:08;;;;;;;;;;;;;;;9.59;100.00;99754.82;108357;1251;61123;-71
2024/02/13 08:36:37;;;;;;;;;;;;;;;9.70;100.00;99759.19;108368;1251;73649;-72
2024/02/13 08:39:03;;;;;;;;;;;;;;;9.81;100.00;99761.44;108371;1251;72774;-71
2024/02/13 08:41:31;;;;;;;;;;;;;;;9.91;100.00;99760.77;108330;1256;72946;-73
2024/02/13 08:43:58;;;;;;;;;;;;;;;10.01;100.00;99760.63;108307;1251;63197;-73
2024/02/13 08:46:25;;;;;;;;;;;;;;;10.11;100.00;99760.65;108371;1251;61228;-71
2024/02/13 08:48:52;;;;;;;;;;;;;;;10.17;100.00;99763.34;108387;1251;74495;-70
2024/02/13 08:51:19;;;;;;;;;;;;;;;10.21;100.00;99766.80;108241;1251;70893;-70
2024/02/13 08:53:46;;;;;;;;;;;;;;;10.26;100.00;99764.35;108391;1255;76246;-70
2024/02/13 08:56:13;;;;;;;;;;;;;;;10.32;100.00;99761.92;108449;1251;61491;-71
2024/02/13 08:58:40;;;;;;;;;;;;;;;10.38;100.00;99755.48;108379;1251;62833;-70
2024/02/13 09:01:07;;;;;;;;;;;;;;;10.43;100.00;99757.06;108434;1251;76838;-71
2024/02/13 09:03:34;;;;;;;;;;;;;;;10.47;100.00;99759.33;108421;1251;71527;-71
2024/02/13 09:06:04;;;;;;;;;;;;;;;10.51;100.00;99759.90;108302;1251;74929;-71
2024/02/13 09:08:32;;;;;;;;;;;;;;;10.54;100.00;99760.10;108377;1251;61243;-70
2024/02/13 09:10:59;;;;;;;;;;;;;;;10.59;100.00;99756.11;108377;1251;61029;-69
2024/02/13 09:13:28;;;;;;;;;;;;;;;10.66;100.00;99757.04;108325;1251;73648;-70
2024/02/13 09:15:55;;;;;;;;;;;;;;;10.71;100.00;99755.89;108422;1251;72156;-70
2024/02/13 09:18:22;;;;;;;;;;;;;;;10.78;100.00;99758.66;108366;1253;74122;-69
2024/02/13 09:20:52;;;;;;;;;;;;;;;10.87;100.00;99759.63;108386;1251;63706;-69
2024/02/13 09:23:33;;;;;;;;;;;;;;;10.98;100.00;99760.07;108356;1253;60036;-70
2024/02/13 09:25:59;;;;;;;;;;;;;;;11.12;100.00;99757.93;108396;1251;72367;-69
2024/02/13 09:28:26;;;;;;;;;;;;;;;11.24;100.00;99762.11;108401;1251;73261;-69
2024/02/13 09:30:53;;;;;;;;;;;;;;;11.35;100.00;99759.92;108383;1256;72705;-69
2024/02/13 09:33:21;;;;;;;;;;;;;;;11.42;100.00;99761.05;108355;1252;62071;-69
2024/02/13 09:35:51;;;;;;;;;;;;;;;11.48;100.00;99760.29;108346;1251;61078;-69
2024/02/13 09:38:18;;;;;;;;;;;;;;;11.55;100.00;99753.27;108381;1251;76019;-69
2024/02/13 09:40:48;;;;;;;;;;;;;;;11.61;100.00;99753.80;108419;1251;72645;-69
2024/02/13 09:43:15;;;;;;;;;;;;;;;11.61;100.00;99746.79;108292;1251;70980;-69
2024/02/13 09:45:44;;;;;;;;;;;;;;;11.63;100.00;99751.33;108304;1251;61122;-70
2024/02/13 09:48:18;;;;;;;;;;;;;;;11.63;100.00;99750.80;108385;1251;61081;-69
2024/02/13 09:50:46;;;;;;;;;;;;;;;11.63;100.00;99753.47;108327;1251;72397;-68
2024/02/13 09:53:16;;;;;;;;;;;;;;;11.63;100.00;99754.11;108166;1251;242564;-68
2024/02/13 09:55:43;;;;;;;;;;;;;;;11.61;100.00;99755.89;108312;1251;72830;-69
2024/02/13 09:58:10;;;;;;;;;;;;;;;11.64;100.00;99752.06;108397;1251;61079;-69
2024/02/13 10:00:37;;;;;;;;;;;;;;;11.62;100.00;99751.34;108331;1251;61163;-68
2024/02/13 10:03:06;;;;;;;;;;;;;;;11.57;100.00;99754.48;108300;1254;72489;-70
2024/02/13 10:05:33;;;;;;;;;;;;;;;11.55;100.00;99760.80;108276;1254;72203;-69
2024/02/13 10:08:01;;;;;;;;;;;;;;;11.56;100.00;99766.96;108412;1251;71500;-69
2024/02/13 10:10:29;;;;;;;;;;;;;;;11.55;100.00;99768.89;108362;1251;60859;-70
2024/02/13 10:12:58;;;;;;;;;;;;;;;11.53;100.00;99767.10;108385;1251;61427;-69
2024/02/13 10:15:24;;;;;;;;;;;;;;;11.49;100.00;99772.16;108428;1256;74983;-68
2024/02/13 10:17:51;;;;;;;;;;;;;;;11.45;100.00;99775.83;108438;1251;72969;-70
2024/02/13 10:20:19;;;;;;;;;;;;;;;11.39;100.00;99780.48;108428;1251;72223;-68
2024/02/13 10:22:50;;;;;;;;;;;;;;;11.33;100.00;99776.15;108504;1251;61112;-68
2024/02/13 10:25:25;;;;;;;;;;;;;;;11.31;100.00;99774.99;108384;1251;61066;-71
2024/02/13 10:27:55;;;;;;;;;;;;;;;11.31;100.00;99774.95;108294;1251;73599;-69
2024/02/13 10:30:25;;;;;;;;;;;;;;;11.31;100.00;99772.96;108347;1251;71834;-69
2024/02/13 10:32:52;;;;;;;;;;;;;;;11.31;100.00;99773.66;108362;1251;70952;-69
2024/02/13 10:35:21;;;;;;;;;;;;;;;11.31;100.00;99776.17;108417;1251;61215;-70
2024/02/13 10:37:48;;;;;;;;;;;;;;;11.34;100.00;99778.08;108324;1251;61216;-69
2024/02/13 10:40:26;;;;;;;;;;;;;;;11.37;100.00;99776.33;108306;1251;73350;-69
2024/02/13 10:42:56;;;;;;;;;;;;;;;11.36;100.00;99778.80;108407;1251;72087;-70
2024/02/13 10:45:33;;;;;;;;;;;;;;;11.34;100.00;99772.95;108308;1251;72106;-69
2024/02/13 10:48:06;;;;;;;;;;;;;;;11.33;100.00;99770.11;108343;1251;62899;-68
2024/02/13 10:50:33;;;;;;;;;;;;;;;11.41;100.00;99775.27;108366;1251;60391;-68
2024/02/13 10:53:00;;;;;;;;;;;;;;;11.48;100.00;99770.55;108309;1251;73569;-69
2024/02/13 10:55:27;;;;;;;;;;;;;;;11.55;100.00;99768.89;108431;1251;71203;-68
2024/02/13 10:57:54;;;;;;;;;;;;;;;11.60;100.00;99774.73;108417;1256;74050;-69
2024/02/13 11:00:20;;;;;;;;;;;;;;;11.66;100.00;99775.20;108331;1251;61215;-69
2024/02/13 11:02:48;;;;;;;;;;;;;;;11.73;100.00;99777.06;108333;1251;60175;-69
2024/02/13 11:05:16;;;;;;;;;;;;;;;11.81;100.00;99776.02;108319;1251;74177;-70
2024/02/13 11:07:45;;;;;;;;;;;;;;;11.90;100.00;99778.36;108295;1251;73063;-70
2024/02/13 11:10:13;;;;;;;;;;;;;;;11.98;100.00;99779.55;108489;1251;72095;-69
2024/02/13 11:12:42;;;;;;;;;;;;;;;12.00;100.00;99784.45;108343;1251;61437;-70
2024/02/13 11:15:11;;;;;;;;;;;;;;;11.95;100.00;99780.34;108392;1251;61111;-68
2024/02/13 11:17:43;;;;;;;;;;;;;;;11.91;100.00;99778.45;108268;1255;74591;-69
2024/02/13 11:20:10;;;;;;;;;;;;;;;11.92;100.00;99774.79;108264;1251;74011;-70
2024/02/13 11:22:42;;;;;;;;;;;;;;;12.00;100.00;99771.45;108366;1251;72204;-69
2024/02/13 11:25:11;;;;;;;;;;;;;;;12.04;100.00;99766.95;108379;1251;61795;-69
2024/02/13 11:27:40;;;;;;;;;;;;;;;11.95;100.00;99766.15;108405;1251;61151;-69
2024/02/13 11:30:07;;;;;;;;;;;;;;;11.79;100.00;99767.53;108340;1254;73222;-69
2024/02/13 11:32:36;;;;;;;;;;;;;;;11.90;100.00;99767.91;108257;1253;75679;-69
2024/02/13 11:35:07;;;;;;;;;;;;;;;11.89;100.00;99765.36;108333;1254;73030;-70
2024/02/13 11:37:34;;;;;;;;;;;;;;;11.92;100.00;99760.13;108221;1251;62321;-70
2024/02/13 11:40:05;;;;;;;;;;;;;;;11.94;100.00;99756.09;108305;1251;60227;-68
2024/02/13 11:42:33;;;;;;;;;;;;;;;11.90;100.00;99760.06;108243;1254;74349;-68
2024/02/13 11:45:06;;;;;;;;;;;;;;;11.86;100.00;99759.73;108357;1251;73247;-69
2024/02/13 11:47:33;;;;;;;;;;;;;;;11.89;100.00;99758.41;108355;1251;72658;-68
2024/02/13 11:50:00;;;;;;;;;;;;;;;11.95;100.00;99755.88;108392;1256;61586;-68
2024/02/13 11:52:35;;;;;;;;;;;;;;;12.03;100.00;99764.02;108322;1253;60415;-68
2024/02/13 11:55:43;;;;;;;;;;;;;;;12.13;100.00;99756.85;108467;1251;74778;-68
2024/02/13 11:58:19;;;;;;;;;;;;;;;12.22;100.00;99756.67;108314;1251;75285;-68
2024/02/13 12:01:05;;;;;;;;;;;;;;;12.26;100.00;99757.05;108309;1251;72750;-69
2024/02/13 12:03:33;;;;;;;;;;;;;;;12.33;100.00;99756.80;108340;1251;63942;-68
2024/02/13 12:06:01;;;;;;;;;;;;;;;12.36;100.00;99760.83;108331;1251;61119;-69
2024/02/13 12:08:28;;;;;;;;;;;;;;;12.38;100.00;99763.06;108375;1251;75172;-69
2024/02/13 12:10:57;;;;;;;;;;;;;;;12.36;100.00;99756.60;108408;1251;73004;-68
2024/02/13 12:13:24;;;;;;;;;;;;;;;12.35;100.00;99754.70;108305;1251;72864;-69
2024/02/13 12:15:51;;;;;;;;;;;;;;;12.31;100.00;99757.73;108391;1251;60419;-70
2024/02/13 12:18:18;;;;;;;;;;;;;;;12.18;100.00;99756.77;108363;1251;63338;-69
2024/02/13 12:20:50;;;;;;;;;;;;;;;12.09;100.00;99757.84;108436;1251;76322;-70
2024/02/13 12:23:17;;;;;;;;;;;;;;;11.99;100.00;99762.78;108376;1254;71783;-69
2024/02/13 12:25:46;;;;;;;;;;;;;;;11.90;100.00;99757.98;108221;1251;72338;-68
2024/02/13 12:28:13;;;;;;;;;;;;;;;11.78;100.00;99757.96;108378;1251;60160;-68
2024/02/13 12:30:44;;;;;;;;;;;;;;;11.70;100.00;99756.86;108483;1251;61229;-68
2024/02/13 12:33:20;;;;;;;;;;;;;;;11.65;100.00;99761.31;108341;1253;74990;-69
2024/02/13 12:36:00;;;;;;;;;;;;;;;11.60;100.00;99762.11;108388;1251;73115;-69
2024/02/13 12:38:27;;;;;;;;;;;;;;;11.57;100.00;99768.50;108306;1251;73116;-70
2024/02/13 12:40:57;;;;;;;;;;;;;;;11.53;100.00;99770.88;108274;1252;62287;-69
2024/02/13 12:43:27;;;;;;;;;;;;;;;11.45;100.00;99774.06;108348;1251;59456;-69